Time;durP1;ratioP1;P1;durP2;ratioP2;P2;SDS_P1;SDS_P2;PMS_P1;PMS_P2;Temp;Humidity;BMP_temperature;BMP_pressure;BME280_temperature;BME280_humidity;BME280_pressure;Samples;Min_cycle;Max_cycle;Signal;HPM_P1;HPM_P2
2022/12/19 00:02:10;;;;;;;25.83;11.45;;;;;;;;;;10279969;28;20117;-88
2022/12/19 00:07:13;;;;;;;23.98;10.85;;;;;;;;;;10298646;28;20129;-89
2022/12/19 00:12:18;;;;;;;25.38;12.30;;;;;;;;;;10288460;28;20054;-88
2022/12/19 00:17:23;;;;;;;28.45;12.60;;;;;;;;;;10293499;28;20615;-87
2022/12/19 00:22:27;;;;;;;24.47;10.63;;;;;;;;;;10289292;28;20069;-89
2022/12/19 00:27:34;;;;;;;20.40;8.98;;;;;;;;;;10290367;28;20281;-90
2022/12/19 00:32:39;;;;;;;14.73;7.25;;;;;;;;;;10296606;28;20517;-90
2022/12/19 00:37:43;;;;;;;16.55;7.70;;;;;;;;;;10287568;28;20138;-88
2022/12/19 00:42:47;;;;;;;21.27;9.77;;;;;;;;;;10316426;28;20046;-88
2022/12/19 00:47:55;;;;;;;17.35;8.75;;;;;;;;;;10283340;28;20069;-90
2022/12/19 00:52:58;;;;;;;25.13;10.13;;;;;;;;;;10297300;28;20126;-89
2022/12/19 00:58:02;;;;;;;19.73;9.02;;;;;;;;;;10289447;28;20050;-90
2022/12/19 01:03:09;;;;;;;18.13;8.45;;;;;;;;;;10278618;28;20050;-88
2022/12/19 01:08:13;;;;;;;16.05;7.65;;;;;;;;;;10319299;28;20075;-90
2022/12/19 01:13:20;;;;;;;22.63;10.23;;;;;;;;;;10290858;28;20035;-92
2022/12/19 01:18:25;;;;;;;20.08;9.77;;;;;;;;;;10298634;28;20078;-93
2022/12/19 01:23:30;;;;;;;20.57;9.97;;;;;;;;;;10299352;28;20052;-90
2022/12/19 01:28:33;;;;;;;22.10;10.18;;;;;;;;;;10299297;28;20089;-89
2022/12/19 01:33:38;;;;;;;29.52;13.48;;;;;;;;;;10281997;28;20031;-92
2022/12/19 01:38:42;;;;;;;21.00;10.95;;;;;;;;;;10300810;28;20047;-90
2022/12/19 01:43:57;;;;;;;26.30;12.05;;;;;;;;;;10302087;28;20043;-90
2022/12/19 01:49:07;;;;;;;26.58;13.00;;;;;;;;;;10288057;28;20061;-92
2022/12/19 01:54:16;;;;;;;21.83;10.48;;;;;;;;;;10294108;28;20046;-92
2022/12/19 01:59:23;;;;;;;24.58;10.50;;;;;;;;;;10314491;28;20129;-93
2022/12/19 02:04:29;;;;;;;24.05;10.27;;;;;;;;;;10328573;28;20035;-90
2022/12/19 02:09:34;;;;;;;20.20;9.55;;;;;;;;;;10289681;28;20149;-92
2022/12/19 02:14:38;;;;;;;19.83;9.98;;;;;;;;;;10316463;28;20513;-91
2022/12/19 02:20:21;;;;;;;36.47;15.95;;;;;;;;;;10284048;28;20043;-91
2022/12/19 02:25:58;;;;;;;22.00;11.38;;;;;;;;;;10315543;28;20429;-87
2022/12/19 02:31:09;;;;;;;24.67;11.88;;;;;;;;;;10302416;28;20072;-87
2022/12/19 02:36:17;;;;;;;29.25;13.60;;;;;;;;;;10288201;28;20038;-91
2022/12/19 02:41:26;;;;;;;28.20;12.48;;;;;;;;;;10320939;28;20057;-90
2022/12/19 02:46:31;;;;;;;30.92;12.98;;;;;;;;;;10323664;28;20417;-89
2022/12/19 02:51:34;;;;;;;18.20;9.13;;;;;;;;;;10320327;28;20112;-87
2022/12/19 02:56:46;;;;;;;17.13;8.48;;;;;;;;;;10293073;28;20409;-86
2022/12/19 03:01:57;;;;;;;28.23;13.15;;;;;;;;;;10287372;28;20042;-87
2022/12/19 03:07:08;;;;;;;28.02;12.95;;;;;;;;;;10304261;28;20134;-86
2022/12/19 03:12:18;;;;;;;32.80;14.18;;;;;;;;;;10317582;28;20038;-88
2022/12/19 03:17:23;;;;;;;37.60;17.50;;;;;;;;;;10297832;28;20125;-89
2022/12/19 03:22:27;;;;;;;34.92;15.30;;;;;;;;;;10291186;28;20054;-89
2022/12/19 03:27:35;;;;;;;36.58;16.02;;;;;;;;;;10306122;28;20632;-87
2022/12/19 03:32:42;;;;;;;30.92;14.68;;;;;;;;;;10310852;28;20045;-88
2022/12/19 03:37:47;;;;;;;36.35;17.42;;;;;;;;;;10333609;28;20129;-89
2022/12/19 03:43:10;;;;;;;46.60;20.42;;;;;;;;;;10300202;28;20101;-89
2022/12/19 03:48:20;;;;;;;40.60;18.77;;;;;;;;;;10318880;28;20038;-86
2022/12/19 03:53:31;;;;;;;36.35;16.05;;;;;;;;;;10292730;28;20061;-87
2022/12/19 03:58:38;;;;;;;31.67;15.40;;;;;;;;;;10315260;28;20552;-87
2022/12/19 04:03:43;;;;;;;28.77;13.85;;;;;;;;;;10331208;28;20160;-91
2022/12/19 04:08:47;;;;;;;29.92;12.70;;;;;;;;;;10308783;28;20368;-89
2022/12/19 04:13:56;;;;;;;31.60;14.23;;;;;;;;;;10288162;28;20042;-89
2022/12/19 04:19:06;;;;;;;34.92;16.15;;;;;;;;;;10294377;28;20065;-91
2022/12/19 04:24:17;;;;;;;35.72;17.27;;;;;;;;;;10313410;28;20069;-90
2022/12/19 04:29:21;;;;;;;27.15;14.05;;;;;;;;;;10288444;28;20133;-89
2022/12/19 04:34:27;;;;;;;22.55;10.73;;;;;;;;;;10299412;28;20088;-90
2022/12/19 04:39:32;;;;;;;31.10;14.07;;;;;;;;;;10299674;28;20440;-87
2022/12/19 04:44:35;;;;;;;41.78;19.50;;;;;;;;;;10297592;28;20085;-86
2022/12/19 04:49:40;;;;;;;32.92;16.55;;;;;;;;;;10305996;28;20529;-89
2022/12/19 04:54:44;;;;;;;28.13;13.32;;;;;;;;;;10284024;28;20090;-89
2022/12/19 04:59:48;;;;;;;25.40;12.77;;;;;;;;;;10279170;28;20137;-92
2022/12/19 05:04:53;;;;;;;30.65;14.38;;;;;;;;;;10320063;28;20074;-90
2022/12/19 05:09:57;;;;;;;37.00;17.48;;;;;;;;;;10305743;28;20665;-90
2022/12/19 05:15:01;;;;;;;29.90;14.15;;;;;;;;;;10288196;28;20106;-88
2022/12/19 05:20:10;;;;;;;30.25;15.20;;;;;;;;;;10307017;28;20050;-91
2022/12/19 05:25:14;;;;;;;29.05;13.82;;;;;;;;;;10310654;28;20105;-90
2022/12/19 05:30:17;;;;;;;31.73;15.88;;;;;;;;;;10289638;28;20311;-87
2022/12/19 05:35:24;;;;;;;32.95;14.25;;;;;;;;;;10302162;28;20052;-89
2022/12/19 05:40:34;;;;;;;32.45;14.38;;;;;;;;;;10304119;28;20058;-89
2022/12/19 05:45:54;;;;;;;24.67;11.85;;;;;;;;;;10279692;28;20050;-86
2022/12/19 05:50:59;;;;;;;26.83;11.85;;;;;;;;;;10269715;28;20084;-87
2022/12/19 05:56:12;;;;;;;30.30;12.82;;;;;;;;;;10318074;28;20093;-86
2022/12/19 06:07:52;;;;;;;23.92;11.77;;;;;;;;;;10284087;28;20100;-86
2022/12/19 06:12:56;;;;;;;28.63;14.40;;;;;;;;;;10291368;28;20061;-87
2022/12/19 06:18:00;;;;;;;36.22;17.77;;;;;;;;;;10301624;28;20126;-85
2022/12/19 06:23:05;;;;;;;28.67;14.10;;;;;;;;;;10314237;28;20077;-86
2022/12/19 06:28:14;;;;;;;26.42;13.55;;;;;;;;;;10286663;28;20045;-88
2022/12/19 06:33:19;;;;;;;23.73;12.05;;;;;;;;;;10313684;28;20100;-89
2022/12/19 06:38:29;;;;;;;35.55;17.73;;;;;;;;;;10294434;28;20062;-92
2022/12/19 06:43:34;;;;;;;36.40;17.33;;;;;;;;;;10294232;28;20038;-92
2022/12/19 06:48:41;;;;;;;31.98;15.20;;;;;;;;;;10342338;28;20552;-90
2022/12/19 06:53:48;;;;;;;35.33;15.25;;;;;;;;;;10340581;28;20633;-90
2022/12/19 06:58:52;;;;;;;32.10;15.13;;;;;;;;;;10309065;28;20046;-88
2022/12/19 07:03:58;;;;;;;30.58;14.48;;;;;;;;;;10293038;28;20050;-88
2022/12/19 07:09:04;;;;;;;25.25;13.32;;;;;;;;;;10290520;28;20050;-89
2022/12/19 07:14:07;;;;;;;39.33;17.83;;;;;;;;;;10282444;28;20555;-89
2022/12/19 07:19:11;;;;;;;30.55;14.45;;;;;;;;;;10280214;28;20563;-89
2022/12/19 07:24:16;;;;;;;24.95;12.35;;;;;;;;;;10290417;28;20049;-89
2022/12/19 07:29:20;;;;;;;22.25;11.40;;;;;;;;;;10290363;28;20527;-88
2022/12/19 07:34:24;;;;;;;23.08;11.57;;;;;;;;;;10323142;28;20069;-94
2022/12/19 07:39:29;;;;;;;21.48;11.27;;;;;;;;;;10296248;28;20073;-91
2022/12/19 07:44:32;;;;;;;20.88;10.25;;;;;;;;;;10298706;28;20470;-90
2022/12/19 07:49:36;;;;;;;32.70;16.52;;;;;;;;;;10303606;28;20133;-90
2022/12/19 07:54:41;;;;;;;27.75;14.45;;;;;;;;;;10294374;28;20077;-88
2022/12/19 07:59:47;;;;;;;31.02;15.10;;;;;;;;;;10289725;28;20038;-95
2022/12/19 08:04:51;;;;;;;20.15;11.05;;;;;;;;;;10290730;28;20054;-89
2022/12/19 08:09:58;;;;;;;32.00;15.57;;;;;;;;;;10287332;28;20057;-89
2022/12/19 08:15:01;;;;;;;22.90;11.90;;;;;;;;;;10286499;28;20138;-88
2022/12/19 08:20:11;;;;;;;31.75;16.25;;;;;;;;;;10295467;28;20488;-89
2022/12/19 08:25:16;;;;;;;28.73;14.63;;;;;;;;;;10291460;28;20042;-89
2022/12/19 08:30:19;;;;;;;25.38;12.55;;;;;;;;;;10292865;28;20046;-90
2022/12/19 08:35:23;;;;;;;23.80;12.00;;;;;;;;;;10296983;28;20642;-91
2022/12/19 08:40:31;;;;;;;23.25;11.77;;;;;;;;;;10306805;28;20655;-91
2022/12/19 08:45:35;;;;;;;24.90;12.23;;;;;;;;;;10346562;28;20173;-91
2022/12/19 08:50:39;;;;;;;23.88;12.43;;;;;;;;;;10322156;28;20038;-91
2022/12/19 08:55:44;;;;;;;23.77;12.40;;;;;;;;;;10306569;28;20480;-92
2022/12/19 09:00:52;;;;;;;24.50;12.18;;;;;;;;;;10315301;28;20117;-91
2022/12/19 09:05:58;;;;;;;21.50;11.18;;;;;;;;;;10325446;28;20413;-90
2022/12/19 09:11:11;;;;;;;23.98;11.70;;;;;;;;;;10291319;28;20054;-90
2022/12/19 09:16:17;;;;;;;25.52;12.07;;;;;;;;;;10286529;28;20053;-90
2022/12/19 09:21:23;;;;;;;18.88;10.25;;;;;;;;;;10296519;28;20879;-89
2022/12/19 09:26:28;;;;;;;;;;;;;;;;;;10287616;28;20486;-89
2022/12/19 09:31:32;;;;;;;25.55;13.52;;;;;;;;;;10293781;28;20012;-91
2022/12/19 09:36:36;;;;;;;24.90;12.57;;;;;;;;;;10291050;28;20069;-89
2022/12/19 09:42:03;;;;;;;31.83;15.18;;;;;;;;;;10288846;28;20398;-89
2022/12/19 09:47:14;;;;;;;33.67;17.10;;;;;;;;;;10273388;28;20724;-93
2022/12/19 09:52:21;;;;;;;28.00;14.18;;;;;;;;;;10284516;28;20521;-88
2022/12/19 09:57:36;;;;;;;30.27;13.63;;;;;;;;;;10283142;28;20557;-91
2022/12/19 10:02:46;;;;;;;25.02;13.70;;;;;;;;;;10302180;28;20086;-91
2022/12/19 10:07:51;;;;;;;27.88;14.05;;;;;;;;;;10273356;28;20050;-88
2022/12/19 10:13:20;;;;;;;33.83;17.00;;;;;;;;;;10305257;28;20712;-92
2022/12/19 10:18:44;;;;;;;27.92;14.93;;;;;;;;;;10286180;28;20046;-91
2022/12/19 10:24:29;;;;;;;30.83;15.80;;;;;;;;;;10326046;28;20050;-93
2022/12/19 10:29:52;;;;;;;26.67;13.85;;;;;;;;;;10330440;28;20452;-93
2022/12/19 10:35:10;;;;;;;27.75;14.32;;;;;;;;;;10325390;28;20050;-93
2022/12/19 10:40:23;;;;;;;23.83;11.88;;;;;;;;;;10327188;28;20070;-95
2022/12/19 10:45:34;;;;;;;27.58;13.25;;;;;;;;;;10315649;28;20089;-91
2022/12/19 10:50:43;;;;;;;17.20;9.27;;;;;;;;;;10290104;28;20039;-95
2022/12/19 10:55:52;;;;;;;19.95;9.63;;;;;;;;;;10314149;28;20119;-91
2022/12/19 11:01:10;;;;;;;18.13;7.30;;;;;;;;;;10297279;28;20058;-91
2022/12/19 11:06:45;;;;;;;15.88;8.50;;;;;;;;;;10297290;28;20070;-92
2022/12/19 11:12:03;;;;;;;20.83;10.52;;;;;;;;;;10306737;28;20043;-94
2022/12/19 12:38:45;;;;;;;33.38;15.85;;;;;;;;;;12973322;22;1559381;-87
2022/12/19 12:44:09;;;;;;;25.42;13.60;;;;;;;;;;12989595;22;20051;-87
2022/12/19 12:49:33;;;;;;;17.33;9.60;;;;;;;;;;12984592;22;20436;-88
2022/12/19 12:54:42;;;;;;;19.65;10.07;;;;;;;;;;12948534;22;20039;-87
2022/12/19 12:59:47;;;;;;;21.30;10.80;;;;;;;;;;12948675;22;20398;-88
2022/12/19 13:05:00;;;;;;;20.75;11.00;;;;;;;;;;12946629;22;20357;-88
2022/12/19 13:10:18;;;;;;;14.23;7.55;;;;;;;;;;12945500;22;20094;-88
2022/12/19 13:15:37;;;;;;;14.25;7.93;;;;;;;;;;12945735;22;20015;-86
2022/12/19 13:20:44;;;;;;;16.85;9.27;;;;;;;;;;12972805;22;20046;-88
2022/12/19 13:25:52;;;;;;;17.70;9.68;;;;;;;;;;12945389;22;20015;-86
2022/12/19 13:31:15;;;;;;;24.95;13.88;;;;;;;;;;12945611;22;20024;-86
2022/12/19 13:36:47;;;;;;;21.63;10.45;;;;;;;;;;12944912;22;20047;-86
2022/12/19 13:47:24;;;;;;;17.27;9.77;;;;;;;;;;12946610;22;20023;-88
2022/12/19 13:52:29;;;;;;;20.67;11.20;;;;;;;;;;12973358;22;20398;-88
2022/12/19 13:57:40;;;;;;;16.48;8.60;;;;;;;;;;12944092;22;20458;-88
2022/12/19 14:02:49;;;;;;;19.15;10.48;;;;;;;;;;12943125;22;20055;-88
2022/12/19 14:07:53;;;;;;;25.58;12.85;;;;;;;;;;12942466;22;20097;-88
2022/12/19 14:18:23;;;;;;;21.80;11.23;;;;;;;;;;12942543;22;20047;-87
2022/12/19 14:23:27;;;;;;;14.07;7.57;;;;;;;;;;12943599;22;20057;-88
2022/12/19 14:28:40;;;;;;;18.90;9.60;;;;;;;;;;12943272;22;20024;-87
2022/12/19 14:33:47;;;;;;;15.18;8.05;;;;;;;;;;12943606;22;20030;-87
2022/12/19 14:39:01;;;;;;;11.95;7.40;;;;;;;;;;12971237;22;20031;-87
2022/12/19 14:44:06;;;;;;;15.23;8.35;;;;;;;;;;12970531;22;20023;-87
2022/12/19 14:49:25;;;;;;;11.87;7.50;;;;;;;;;;12943872;22;20026;-88
2022/12/19 14:54:29;;;;;;;18.20;10.05;;;;;;;;;;12971816;22;20028;-88
2022/12/19 14:59:54;;;;;;;19.02;10.35;;;;;;;;;;12969035;22;20050;-86
2022/12/19 15:05:02;;;;;;;22.48;12.43;;;;;;;;;;12942491;22;20025;-88
2022/12/19 15:10:13;;;;;;;22.83;12.35;;;;;;;;;;12943673;22;20024;-87
2022/12/19 15:15:21;;;;;;;24.88;13.07;;;;;;;;;;12944353;22;20077;-87
2022/12/19 15:20:24;;;;;;;17.75;9.55;;;;;;;;;;12942194;22;20402;-88
2022/12/19 15:25:28;;;;;;;16.10;8.93;;;;;;;;;;12941964;22;20102;-84
2022/12/19 15:30:57;;;;;;;22.58;12.45;;;;;;;;;;12968663;22;20024;-82
2022/12/19 15:36:01;;;;;;;18.30;9.90;;;;;;;;;;12938580;22;20030;-83
2022/12/19 15:41:05;;;;;;;22.90;12.35;;;;;;;;;;12966261;22;20099;-82
2022/12/19 15:46:13;;;;;;;18.25;10.13;;;;;;;;;;12972203;22;20035;-86
2022/12/19 15:51:16;;;;;;;19.33;9.38;;;;;;;;;;12970056;22;20510;-83
2022/12/19 15:56:27;;;;;;;22.15;11.90;;;;;;;;;;12942587;22;20110;-85
2022/12/19 16:01:33;;;;;;;24.17;11.80;;;;;;;;;;12940089;22;20418;-83
2022/12/19 16:06:37;;;;;;;27.83;11.97;;;;;;;;;;12970807;22;20024;-85
2022/12/19 16:11:40;;;;;;;25.98;13.93;;;;;;;;;;12948403;22;20415;-86
2022/12/19 16:16:49;;;;;;;21.50;11.98;;;;;;;;;;12974324;22;20363;-84
2022/12/19 16:21:53;;;;;;;19.27;11.50;;;;;;;;;;12974886;22;20711;-84
2022/12/19 16:26:59;;;;;;;19.30;10.55;;;;;;;;;;12985017;22;20031;-84
2022/12/19 16:32:04;;;;;;;14.88;7.65;;;;;;;;;;12945677;22;20034;-84
2022/12/19 16:37:11;;;;;;;17.87;10.80;;;;;;;;;;12983205;22;20355;-84
2022/12/19 16:42:16;;;;;;;;;;;;;;;;;;12942639;22;20023;-83
2022/12/19 16:47:20;;;;;;;18.65;10.10;;;;;;;;;;12946068;22;19942;-83
2022/12/19 16:52:24;;;;;;;20.65;10.93;;;;;;;;;;12955122;22;20071;-83
2022/12/19 16:57:27;;;;;;;17.55;10.48;;;;;;;;;;12955328;22;20024;-84
2022/12/19 17:02:43;;;;;;;17.88;8.82;;;;;;;;;;12980351;22;20054;-83
2022/12/19 17:07:47;;;;;;;21.60;11.55;;;;;;;;;;12954674;22;20020;-83
2022/12/19 17:12:55;;;;;;;17.23;9.27;;;;;;;;;;12890375;22;20032;-83
2022/12/19 17:18:03;;;;;;;21.55;10.82;;;;;;;;;;12891802;22;20023;-84
2022/12/19 17:23:15;;;;;;;14.70;7.60;;;;;;;;;;12913413;22;20030;-84
2022/12/19 17:28:19;;;;;;;13.77;7.25;;;;;;;;;;12939473;22;20020;-85
2022/12/19 17:33:28;;;;;;;13.63;7.30;;;;;;;;;;12965189;22;20043;-85
2022/12/19 17:38:32;;;;;;;14.48;8.50;;;;;;;;;;12940181;22;20034;-85
2022/12/19 17:43:35;;;;;;;15.63;8.80;;;;;;;;;;12965848;22;20407;-86
2022/12/19 17:48:42;;;;;;;14.95;8.50;;;;;;;;;;12938772;22;20030;-84
2022/12/19 17:53:46;;;;;;;19.40;10.65;;;;;;;;;;12933961;22;20071;-84
2022/12/19 17:58:49;;;;;;;12.75;7.30;;;;;;;;;;12971391;22;20020;-85
2022/12/19 18:03:56;;;;;;;13.82;7.47;;;;;;;;;;12936514;22;20035;-85
2022/12/19 18:09:01;;;;;;;;;;;;;;;;;;12933662;22;20733;-83
2022/12/19 18:14:04;;;;;;;11.38;6.28;;;;;;;;;;12908938;22;20773;-83
2022/12/19 18:19:16;;;;;;;10.07;5.72;;;;;;;;;;12916300;22;20034;-84
2022/12/19 18:24:20;;;;;;;8.88;5.13;;;;;;;;;;12910893;22;20024;-84
2022/12/19 18:29:24;;;;;;;8.02;4.72;;;;;;;;;;12913856;22;20362;-82
2022/12/19 18:34:31;;;;;;;8.27;4.80;;;;;;;;;;12938484;22;20106;-85
2022/12/19 18:39:36;;;;;;;9.60;5.30;;;;;;;;;;12944633;22;20240;-85
2022/12/19 18:44:39;;;;;;;6.45;4.63;;;;;;;;;;12938386;22;20066;-84
2022/12/19 18:49:44;;;;;;;9.88;5.68;;;;;;;;;;12933208;22;20290;-84
2022/12/19 18:54:48;;;;;;;11.15;5.70;;;;;;;;;;12940089;22;20023;-85
2022/12/19 18:59:51;;;;;;;7.72;4.82;;;;;;;;;;12966439;22;20034;-85
2022/12/19 19:04:57;;;;;;;8.90;4.88;;;;;;;;;;12912009;22;20088;-84
2022/12/19 19:10:22;;;;;;;7.93;4.40;;;;;;;;;;12903882;22;20102;-83
2022/12/19 19:15:49;;;;;;;6.97;4.00;;;;;;;;;;12909672;22;20206;-83
2022/12/19 19:20:55;;;;;;;7.53;4.78;;;;;;;;;;12912242;22;20020;-86
2022/12/19 19:26:03;;;;;;;7.38;4.30;;;;;;;;;;12981556;22;20710;-85
2022/12/19 19:31:09;;;;;;;7.13;3.88;;;;;;;;;;12937786;22;20074;-85
2022/12/19 19:36:17;;;;;;;6.75;3.72;;;;;;;;;;12940265;22;20019;-86
2022/12/19 19:41:21;;;;;;;7.28;4.35;;;;;;;;;;12941205;22;20265;-86
2022/12/19 19:46:24;;;;;;;7.00;4.38;;;;;;;;;;12979070;22;20075;-83
2022/12/19 19:51:29;;;;;;;6.68;3.92;;;;;;;;;;12955222;22;20028;-83
2022/12/19 19:56:32;;;;;;;9.55;4.70;;;;;;;;;;12914924;22;20051;-83
2022/12/19 20:01:36;;;;;;;8.48;4.40;;;;;;;;;;12914423;22;20043;-83
2022/12/19 20:06:41;;;;;;;8.57;4.68;;;;;;;;;;12913854;22;20081;-84
2022/12/19 20:11:44;;;;;;;6.30;3.92;;;;;;;;;;12971817;22;20465;-85
2022/12/19 20:16:47;;;;;;;8.30;4.40;;;;;;;;;;12987573;22;20023;-85
2022/12/19 20:21:52;;;;;;;5.78;3.83;;;;;;;;;;12948117;22;20574;-85
2022/12/19 21:06:27;;;;;;;6.60;4.00;;;;;;;;;;12892247;22;20219;-88
2022/12/19 21:11:30;;;;;;;7.00;4.20;;;;;;;;;;13008642;22;20099;-88
2022/12/19 21:16:35;;;;;;;8.35;4.32;;;;;;;;;;12991883;22;20099;-87
2022/12/19 21:21:40;;;;;;;5.40;3.65;;;;;;;;;;12993540;22;20500;-88
2022/12/19 21:26:46;;;;;;;7.10;4.10;;;;;;;;;;12992366;22;20364;-88
2022/12/19 21:31:49;;;;;;;8.33;4.53;;;;;;;;;;12993307;22;20068;-88
2022/12/19 21:36:54;;;;;;;8.90;4.65;;;;;;;;;;13019449;22;20821;-89
2022/12/19 21:41:58;;;;;;;7.28;3.92;;;;;;;;;;13019604;22;20099;-89
2022/12/19 21:47:01;;;;;;;6.30;3.60;;;;;;;;;;13019553;22;20029;-88
2022/12/19 21:52:07;;;;;;;5.38;3.15;;;;;;;;;;12994950;22;20020;-88
2022/12/19 21:57:13;;;;;;;4.93;3.08;;;;;;;;;;13021089;22;20034;-89
2022/12/19 22:02:16;;;;;;;;;;;;;;;;;;12984506;22;20098;-88
2022/12/19 22:07:21;;;;;;;7.47;3.90;;;;;;;;;;12983612;22;19994;-89
2022/12/19 22:12:29;;;;;;;5.15;3.28;;;;;;;;;;13012789;22;20030;-89
2022/12/19 22:17:33;;;;;;;6.88;4.15;;;;;;;;;;12984416;22;20027;-88
2022/12/19 22:22:38;;;;;;;6.40;3.75;;;;;;;;;;12980914;22;20316;-89
2022/12/19 22:27:42;;;;;;;8.90;5.38;;;;;;;;;;12986061;22;20444;-89
2022/12/19 22:32:45;;;;;;;7.90;4.93;;;;;;;;;;12983661;22;20020;-89
2022/12/19 22:37:51;;;;;;;8.07;4.85;;;;;;;;;;12983822;22;20333;-89
2022/12/19 22:42:54;;;;;;;7.65;4.88;;;;;;;;;;13008476;22;20452;-88
2022/12/19 22:47:58;;;;;;;11.30;5.55;;;;;;;;;;12983975;22;20467;-89
2022/12/19 22:53:03;;;;;;;10.30;5.68;;;;;;;;;;12989201;22;20618;-89
2022/12/19 22:58:09;;;;;;;10.15;6.13;;;;;;;;;;12992649;22;20030;-89
2022/12/19 23:03:13;;;;;;;11.52;5.82;;;;;;;;;;12995530;22;20046;-89
2022/12/19 23:08:17;;;;;;;12.77;6.32;;;;;;;;;;12990396;22;20519;-88
2022/12/19 23:13:22;;;;;;;11.63;6.68;;;;;;;;;;12984380;22;20643;-90
2022/12/19 23:18:26;;;;;;;10.23;6.57;;;;;;;;;;12983812;22;20623;-89
2022/12/19 23:23:31;;;;;;;11.20;6.90;;;;;;;;;;13009969;22;20023;-90
2022/12/19 23:28:34;;;;;;;10.05;6.53;;;;;;;;;;12984364;22;20029;-88
2022/12/19 23:33:38;;;;;;;9.52;5.50;;;;;;;;;;12987895;22;20019;-89
2022/12/19 23:38:43;;;;;;;10.95;6.00;;;;;;;;;;12987070;22;20102;-88
2022/12/19 23:43:47;;;;;;;10.88;5.40;;;;;;;;;;13012186;22;20022;-88
2022/12/19 23:48:51;;;;;;;9.63;5.70;;;;;;;;;;12988343;22;20491;-88
2022/12/19 23:53:57;;;;;;;10.02;5.82;;;;;;;;;;12989324;22;20129;-88
2022/12/19 23:59:00;;;;;;;10.55;5.70;;;;;;;;;;12987072;22;20027;-88
